sensor_id;sensor_type;location;lat;lon;timestamp;pressure;altitude;pressure_sealevel;temperature;humidity
70943;BME280;59154;51.970;5.650;2022-08-18T00:00:05;101300;;;19.23352;100.5
70943;BME280;59154;51.970;5.650;2022-08-18T00:05:03;101300;;;19.15723;100.8
70943;BME280;59154;51.970;5.650;2022-08-18T00:10:04;101300;;;18.99956;101.7
70943;BME280;59154;51.970;5.650;2022-08-18T00:15:03;101300;;;18.93344;102.2
70943;BME280;59154;51.970;5.650;2022-08-18T00:20:05;101300;;;18.86732;102.3
70943;BME280;59154;51.970;5.650;2022-08-18T00:25:03;101300;;;18.68931;103.0
70943;BME280;59154;51.970;5.650;2022-08-18T00:30:07;101300;;;18.60285;103.4
70943;BME280;59154;51.970;5.650;2022-08-18T00:35:07;101300;;;18.48587;103.7
70943;BME280;59154;51.970;5.650;2022-08-18T00:40:05;101300;;;18.52656;102.9
70943;BME280;59154;51.970;5.650;2022-08-18T00:45:04;101300;;;18.33837;103.2
70943;BME280;59154;51.970;5.650;2022-08-18T00:50:03;101300;;;18.26717;103.1
70943;BME280;59154;51.970;5.650;2022-08-18T00:55:03;101300;;;18.26717;103.0
70943;BME280;59154;51.970;5.650;2022-08-18T01:00:05;101300;;;18.16545;103.6
70943;BME280;59154;51.970;5.650;2022-08-18T01:05:06;101300;;;18.16545;103.6
70943;BME280;59154;51.970;5.650;2022-08-18T01:10:04;101300;;;18.23665;103.0
70943;BME280;59154;51.970;5.650;2022-08-18T01:15:03;101300;;;18.27734;102.4
70943;BME280;59154;51.970;5.650;2022-08-18T01:20:05;101300;;;18.31294;102.0
70943;BME280;59154;51.970;5.650;2022-08-18T01:25:05;101300;;;18.3282;102.0
70943;BME280;59154;51.970;5.650;2022-08-18T01:30:07;101300;;;18.38923;101.6
70943;BME280;59154;51.970;5.650;2022-08-18T01:35:04;101300;;;18.48587;101.5
70943;BME280;59154;51.970;5.650;2022-08-18T01:40:05;101300;;;18.5113;101.1
70943;BME280;59154;51.970;5.650;2022-08-18T01:45:05;101300;;;18.38923;101.3
70943;BME280;59154;51.970;5.650;2022-08-18T01:50:04;101300;;;18.23156;102.0
70943;BME280;59154;51.970;5.650;2022-08-18T01:55:04;101300;;;18.33837;101.6
70943;BME280;59154;51.970;5.650;2022-08-18T02:00:04;101300;;;18.38923;101.2
70943;BME280;59154;51.970;5.650;2022-08-18T02:05:09;101300;;;18.44009;101.2
70943;BME280;59154;51.970;5.650;2022-08-18T02:10:05;101300;;;18.35363;101.6
70943;BME280;59154;51.970;5.650;2022-08-18T02:15:04;101300;;;18.37906;101.3
70943;BME280;59154;51.970;5.650;2022-08-18T02:20:05;101300;;;18.41975;101.5
70943;BME280;59154;51.970;5.650;2022-08-18T02:25:03;101400;;;18.41466;101.3
70943;BME280;59154;51.970;5.650;2022-08-18T02:30:07;101300;;;18.41466;101.6
70943;BME280;59154;51.970;5.650;2022-08-18T02:35:03;101300;;;18.47569;101.1
70943;BME280;59154;51.970;5.650;2022-08-18T02:40:04;101300;;;18.48078;101.2
70943;BME280;59154;51.970;5.650;2022-08-18T02:45:03;101300;;;18.48078;101.3
70943;BME280;59154;51.970;5.650;2022-08-18T02:50:04;101300;;;18.5469;101.1
70943;BME280;59154;51.970;5.650;2022-08-18T02:55:03;101300;;;18.62319;100.6
70943;BME280;59154;51.970;5.650;2022-08-18T03:00:04;101300;;;18.62319;100.5
70943;BME280;59154;51.970;5.650;2022-08-18T03:05:03;101300;;;18.58759;101.4
70943;BME280;59154;51.970;5.650;2022-08-18T03:10:03;101300;;;18.59776;101.9
70943;BME280;59154;51.970;5.650;2022-08-18T03:15:03;101300;;;18.59776;101.8
70943;BME280;59154;51.970;5.650;2022-08-18T03:20:03;101300;;;18.53164;102.2
70943;BME280;59154;51.970;5.650;2022-08-18T03:25:03;101300;;;18.57742;101.9
70943;BME280;59154;51.970;5.650;2022-08-18T03:30:03;101300;;;18.55199;102.2
70943;BME280;59154;51.970;5.650;2022-08-18T03:35:03;101300;;;18.55199;102.3
70943;BME280;59154;51.970;5.650;2022-08-18T03:40:03;101300;;;18.57233;102.4
70943;BME280;59154;51.970;5.650;2022-08-18T03:45:03;101400;;;18.46044;103.0
70943;BME280;59154;51.970;5.650;2022-08-18T03:50:03;101400;;;18.49095;102.9
70943;BME280;59154;51.970;5.650;2022-08-18T03:55:03;101400;;;18.52656;102.6
70943;BME280;59154;51.970;5.650;2022-08-18T04:00:04;101300;;;18.45026;103.3
70943;BME280;59154;51.970;5.650;2022-08-18T04:05:02;101400;;;18.37906;103.3
70943;BME280;59154;51.970;5.650;2022-08-18T04:10:03;101400;;;18.40449;102.8
70943;BME280;59154;51.970;5.650;2022-08-18T04:15:03;101400;;;18.31803;103.1
70943;BME280;59154;51.970;5.650;2022-08-18T04:20:04;101400;;;18.35363;103.1
70943;BME280;59154;51.970;5.650;2022-08-18T04:25:03;101400;;;18.39432;102.9
70943;BME280;59154;51.970;5.650;2022-08-18T04:30:04;101400;;;18.3994;102.8
70943;BME280;59154;51.970;5.650;2022-08-18T04:35:03;101400;;;18.28751;103.5
70943;BME280;59154;51.970;5.650;2022-08-18T04:40:04;101400;;;18.1451;104.0
70943;BME280;59154;51.970;5.650;2022-08-18T04:45:02;101400;;;18.04847;104.3
70943;BME280;59154;51.970;5.650;2022-08-18T04:50:03;101400;;;18.0383;104.2
70943;BME280;59154;51.970;5.650;2022-08-18T04:55:04;101400;;;18.04847;104.1
70943;BME280;59154;51.970;5.650;2022-08-18T05:00:06;101400;;;18.02304;103.9
70943;BME280;59154;51.970;5.650;2022-08-18T05:05:03;101400;;;17.92132;104.6
70943;BME280;59154;51.970;5.650;2022-08-18T05:10:04;101400;;;17.94166;104.4
70943;BME280;59154;51.970;5.650;2022-08-18T05:15:03;101400;;;18.00778;103.8
70943;BME280;59154;51.970;5.650;2022-08-18T05:20:04;101400;;;17.99252;103.9
70943;BME280;59154;51.970;5.650;2022-08-18T05:25:04;101400;;;17.95692;104.4
70943;BME280;59154;51.970;5.650;2022-08-18T05:30:05;101400;;;17.96709;104.8
70943;BME280;59154;51.970;5.650;2022-08-18T05:35:03;101400;;;17.95692;104.7
70943;BME280;59154;51.970;5.650;2022-08-18T05:40:04;101400;;;17.88063;105.1
70943;BME280;59154;51.970;5.650;2022-08-18T05:45:08;101400;;;17.97218;104.6
70943;BME280;59154;51.970;5.650;2022-08-18T05:50:06;101400;;;17.94675;104.8
70943;BME280;59154;51.970;5.650;2022-08-18T05:55:05;101400;;;18.04338;104.2
70943;BME280;59154;51.970;5.650;2022-08-18T06:00:05;101400;;;18.28242;103.3
70943;BME280;59154;51.970;5.650;2022-08-18T06:05:07;101400;;;18.05355;104.4
70943;BME280;59154;51.970;5.650;2022-08-18T06:10:05;101400;;;18.1807;103.9
70943;BME280;59154;51.970;5.650;2022-08-18T06:15:07;101400;;;18.27734;103.4
70943;BME280;59154;51.970;5.650;2022-08-18T06:20:08;101400;;;18.61302;101.8
70943;BME280;59154;51.970;5.650;2022-08-18T06:25:09;101400;;;18.89784;100.0
70943;BME280;59154;51.970;5.650;2022-08-18T06:30:09;101400;;;19.15723;98.9
70943;BME280;59154;51.970;5.650;2022-08-18T06:35:12;101400;;;19.40645;98.2
70943;BME280;59154;51.970;5.650;2022-08-18T06:40:03;101400;;;19.48274;97.6
70943;BME280;59154;51.970;5.650;2022-08-18T06:45:07;101400;;;19.73704;96.4
70943;BME280;59154;51.970;5.650;2022-08-18T06:50:05;101400;;;19.83877;96.1
70943;BME280;59154;51.970;5.650;2022-08-18T06:55:06;101400;;;19.97609;95.6
70943;BME280;59154;51.970;5.650;2022-08-18T07:00:08;101400;;;20.06764;95.1
70943;BME280;59154;51.970;5.650;2022-08-18T07:05:05;101400;;;20.12868;94.2
70943;BME280;59154;51.970;5.650;2022-08-18T07:10:07;101400;;;20.21514;93.7
70943;BME280;59154;51.970;5.650;2022-08-18T07:15:04;101400;;;20.35755;93.4
70943;BME280;59154;51.970;5.650;2022-08-18T07:20:07;101400;;;20.38298;93.2
70943;BME280;59154;51.970;5.650;2022-08-18T07:25:03;101400;;;20.29143;93.5
70943;BME280;59154;51.970;5.650;2022-08-18T07:30:06;101400;;;20.41859;93.1
70943;BME280;59154;51.970;5.650;2022-08-18T07:35:05;101400;;;20.48471;92.7
70943;BME280;59154;51.970;5.650;2022-08-18T07:40:09;101400;;;20.78988;91.1
70943;BME280;59154;51.970;5.650;2022-08-18T07:45:10;101400;;;20.91195;89.7
70943;BME280;59154;51.970;5.650;2022-08-18T07:50:05;101400;;;20.90177;89.7
70943;BME280;59154;51.970;5.650;2022-08-18T07:55:09;101400;;;20.76445;89.8
70943;BME280;59154;51.970;5.650;2022-08-18T08:00:08;101400;;;20.91195;89.2
70943;BME280;59154;51.970;5.650;2022-08-18T08:05:09;101400;;;21.19677;88.1
70943;BME280;59154;51.970;5.650;2022-08-18T08:10:17;101400;;;21.13574;88.5
70943;BME280;59154;51.970;5.650;2022-08-18T08:15:17;101400;;;21.27815;87.7
70943;BME280;59154;51.970;5.650;2022-08-18T08:20:12;101400;;;21.28832;86.7
70943;BME280;59154;51.970;5.650;2022-08-18T08:25:07;101400;;;21.446;86.1
70943;BME280;59154;51.970;5.650;2022-08-18T08:30:06;101400;;;21.88341;84.2
70943;BME280;59154;51.970;5.650;2022-08-18T08:35:07;101400;;;22.05126;83.9
70943;BME280;59154;51.970;5.650;2022-08-18T08:40:07;101400;;;21.99022;84.0
70943;BME280;59154;51.970;5.650;2022-08-18T08:45:07;101400;;;21.78169;83.7
70943;BME280;59154;51.970;5.650;2022-08-18T08:50:06;101400;;;22.12247;82.9
70943;BME280;59154;51.970;5.650;2022-08-18T08:55:05;101400;;;22.22419;81.1
70943;BME280;59154;51.970;5.650;2022-08-18T09:00:07;101400;;;22.26488;81.0
70943;BME280;59154;51.970;5.650;2022-08-18T09:05:07;101400;;;22.13264;80.9
70943;BME280;59154;51.970;5.650;2022-08-18T09:10:30;101400;;;22.06143;80.6
70943;BME280;59154;51.970;5.650;2022-08-18T09:15:21;101400;;;22.36152;79.4
70943;BME280;59154;51.970;5.650;2022-08-18T09:20:14;101400;;;22.74808;78.1
70943;BME280;59154;51.970;5.650;2022-08-18T09:25:08;101400;;;22.42764;78.2
70943;BME280;59154;51.970;5.650;2022-08-18T09:30:05;101400;;;22.34626;79.7
70943;BME280;59154;51.970;5.650;2022-08-18T09:35:12;101400;;;22.38695;77.8
70943;BME280;59154;51.970;5.650;2022-08-18T09:40:10;101400;;;22.53445;75.8
70943;BME280;59154;51.970;5.650;2022-08-18T09:45:06;101400;;;23.16516;74.4
70943;BME280;59154;51.970;5.650;2022-08-18T09:50:33;101400;;;23.59749;73.7
70943;BME280;59154;51.970;5.650;2022-08-18T09:55:07;101400;;;23.60767;72.7
70943;BME280;59154;51.970;5.650;2022-08-18T10:05:33;101400;;;23.00239;74.7
70943;BME280;59154;51.970;5.650;2022-08-18T10:10:11;101400;;;23.19059;74.5
70943;BME280;59154;51.970;5.650;2022-08-18T10:15:18;101400;;;23.49068;74.2
70943;BME280;59154;51.970;5.650;2022-08-18T10:20:22;101400;;;23.51103;72.5
70943;BME280;59154;51.970;5.650;2022-08-18T10:25:03;101400;;;24.45709;69.4
70943;BME280;59154;51.970;5.650;2022-08-18T10:30:04;101400;;;23.9688;70.5
70943;BME280;59154;51.970;5.650;2022-08-18T10:35:04;101400;;;23.81112;72.2
70943;BME280;59154;51.970;5.650;2022-08-18T10:40:13;101400;;;23.77552;72.4
70943;BME280;59154;51.970;5.650;2022-08-18T10:45:06;101400;;;23.53646;72.8
70943;BME280;59154;51.970;5.650;2022-08-18T10:50:06;101400;;;23.83655;72.2
70943;BME280;59154;51.970;5.650;2022-08-18T10:55:12;101400;;;23.9688;70.1
70943;BME280;59154;51.970;5.650;2022-08-18T11:00:07;101400;;;24.07052;68.8
70943;BME280;59154;51.970;5.650;2022-08-18T11:05:05;101400;;;24.67072;67.4
70943;BME280;59154;51.970;5.650;2022-08-18T11:10:15;101400;;;25.17936;65.8
70943;BME280;59154;51.970;5.650;2022-08-18T11:15:11;101400;;;25.53032;63.4
70943;BME280;59154;51.970;5.650;2022-08-18T11:20:05;101400;;;25.33704;63.0
70943;BME280;59154;51.970;5.650;2022-08-18T11:25:15;101400;;;24.93012;66.2
70943;BME280;59154;51.970;5.650;2022-08-18T11:30:05;101400;;;24.66055;67.8
70943;BME280;59154;51.970;5.650;2022-08-18T11:35:05;101400;;;24.70632;68.1
70943;BME280;59154;51.970;5.650;2022-08-18T11:40:06;101400;;;24.75719;69.1
70943;BME280;59154;51.970;5.650;2022-08-18T11:45:06;101400;;;24.56899;69.5
70943;BME280;59154;51.970;5.650;2022-08-18T11:50:08;101400;;;24.44183;69.6
70943;BME280;59154;51.970;5.650;2022-08-18T11:55:05;101400;;;24.39097;69.3
70943;BME280;59154;51.970;5.650;2022-08-18T12:00:37;101400;;;24.66055;68.5
70943;BME280;59154;51.970;5.650;2022-08-18T12:05:03;101400;;;25.13867;66.5
70943;BME280;59154;51.970;5.650;2022-08-18T12:10:17;101400;;;25.33704;64.7
70943;BME280;59154;51.970;5.650;2022-08-18T12:15:22;101300;;;25.44385;64.2
70943;BME280;59154;51.970;5.650;2022-08-18T12:20:04;101300;;;25.51506;63.8
70943;BME280;59154;51.970;5.650;2022-08-18T12:25:05;101300;;;25.63205;63.4
70943;BME280;59154;51.970;5.650;2022-08-18T12:30:05;101400;;;25.63714;61.8
70943;BME280;59154;51.970;5.650;2022-08-18T12:35:04;101300;;;25.28617;65.5
70943;BME280;59154;51.970;5.650;2022-08-18T12:40:04;101300;;;25.28617;67.2
70943;BME280;59154;51.970;5.650;2022-08-18T12:45:03;101300;;;25.5761;66.5
70943;BME280;59154;51.970;5.650;2022-08-18T12:50:03;101300;;;25.32178;66.7
70943;BME280;59154;51.970;5.650;2022-08-18T12:55:03;101300;;;25.78465;66.1
70943;BME280;59154;51.970;5.650;2022-08-18T13:00:04;101300;;;25.77447;65.0
70943;BME280;59154;51.970;5.650;2022-08-18T13:05:03;101400;;;25.72361;64.0
70943;BME280;59154;51.970;5.650;2022-08-18T13:10:03;101400;;;25.79482;63.0
70943;BME280;59154;51.970;5.650;2022-08-18T13:15:04;101400;;;26.05932;63.4
70943;BME280;59154;51.970;5.650;2022-08-18T13:20:06;101400;;;25.8406;63.9
70943;BME280;59154;51.970;5.650;2022-08-18T13:25:03;101400;;;26.13561;62.7
70943;BME280;59154;51.970;5.650;2022-08-18T13:30:05;101400;;;26.22208;63.1
70943;BME280;59154;51.970;5.650;2022-08-18T13:35:03;101400;;;26.2933;62.0
70943;BME280;59154;51.970;5.650;2022-08-18T13:40:04;101400;;;26.56797;62.4
70943;BME280;59154;51.970;5.650;2022-08-18T13:45:03;101400;;;27.158;59.5
70943;BME280;59154;51.970;5.650;2022-08-18T13:50:03;101400;;;27.37673;59.1
70943;BME280;59154;51.970;5.650;2022-08-18T13:55:04;101400;;;27.19361;58.4
70943;BME280;59154;51.970;5.650;2022-08-18T14:00:06;101400;;;27.45811;59.2
70943;BME280;59154;51.970;5.650;2022-08-18T14:05:03;101400;;;27.34621;58.3
70943;BME280;59154;51.970;5.650;2022-08-18T14:10:04;101400;;;27.3869;59.2
70943;BME280;59154;51.970;5.650;2022-08-18T14:15:05;101400;;;27.28517;59.6
70943;BME280;59154;51.970;5.650;2022-08-18T14:20:05;101400;;;27.24956;59.7
70943;BME280;59154;51.970;5.650;2022-08-18T14:25:03;101300;;;27.24956;60.5
70943;BME280;59154;51.970;5.650;2022-08-18T14:30:05;101300;;;27.43776;59.7
70943;BME280;59154;51.970;5.650;2022-08-18T14:35:05;101300;;;27.73787;59.7
70943;BME280;59154;51.970;5.650;2022-08-18T14:40:04;101300;;;27.75313;57.7
70943;BME280;59154;51.970;5.650;2022-08-18T14:45:03;101300;;;27.39199;58.5
70943;BME280;59154;51.970;5.650;2022-08-18T14:50:04;101300;;;27.15292;58.7
70943;BME280;59154;51.970;5.650;2022-08-18T14:55:03;101300;;;26.80703;59.6
70943;BME280;59154;51.970;5.650;2022-08-18T15:00:05;101300;;;26.52727;61.2
70943;BME280;59154;51.970;5.650;2022-08-18T15:05:03;101300;;;26.45098;60.8
70943;BME280;59154;51.970;5.650;2022-08-18T15:10:04;101300;;;26.60357;60.8
70943;BME280;59154;51.970;5.650;2022-08-18T15:15:03;101300;;;26.57305;60.2
70943;BME280;59154;51.970;5.650;2022-08-18T15:20:05;101300;;;26.36959;60.0
70943;BME280;59154;51.970;5.650;2022-08-18T15:25:05;101300;;;26.10001;63.6
70943;BME280;59154;51.970;5.650;2022-08-18T15:30:05;101300;;;26.00337;64.4
70943;BME280;59154;51.970;5.650;2022-08-18T15:35:03;101300;;;25.89655;63.4
70943;BME280;59154;51.970;5.650;2022-08-18T15:40:09;101300;;;26.13053;63.1
70943;BME280;59154;51.970;5.650;2022-08-18T15:45:03;101300;;;26.57814;62.3
70943;BME280;59154;51.970;5.650;2022-08-18T15:50:02;101300;;;26.49676;62.4
70943;BME280;59154;51.970;5.650;2022-08-18T15:55:03;101300;;;26.90368;61.5
70943;BME280;59154;51.970;5.650;2022-08-18T16:00:05;101300;;;27.09697;60.5
70943;BME280;59154;51.970;5.650;2022-08-18T16:05:03;101300;;;27.35129;59.4
70943;BME280;59154;51.970;5.650;2022-08-18T16:10:04;101300;;;27.40216;59.4
70943;BME280;59154;51.970;5.650;2022-08-18T16:15:03;101300;;;27.49372;58.5
70943;BME280;59154;51.970;5.650;2022-08-18T16:20:04;101300;;;27.17835;58.3
70943;BME280;59154;51.970;5.650;2022-08-18T16:25:04;101300;;;27.4632;57.8
70943;BME280;59154;51.970;5.650;2022-08-18T16:30:04;101300;;;27.30043;58.5
70943;BME280;59154;51.970;5.650;2022-08-18T16:35:02;101300;;;27.56493;58.0
70943;BME280;59154;51.970;5.650;2022-08-18T16:40:04;101300;;;27.70227;57.3
70943;BME280;59154;51.970;5.650;2022-08-18T16:45:04;101300;;;27.85995;56.5
70943;BME280;59154;51.970;5.650;2022-08-18T16:50:03;101300;;;27.94134;58.2
70943;BME280;59154;51.970;5.650;2022-08-18T16:55:04;101300;;;27.79891;59.2
70943;BME280;59154;51.970;5.650;2022-08-18T17:00:05;101300;;;27.86504;59.6
70943;BME280;59154;51.970;5.650;2022-08-18T17:05:03;101300;;;28.21601;57.8
70943;BME280;59154;51.970;5.650;2022-08-18T17:10:04;101300;;;28.15497;57.3
70943;BME280;59154;51.970;5.650;2022-08-18T17:15:03;101300;;;27.63614;59.6
70943;BME280;59154;51.970;5.650;2022-08-18T17:20:04;101300;;;26.87316;60.3
70943;BME280;59154;51.970;5.650;2022-08-18T17:25:03;101300;;;26.15087;62.9
70943;BME280;59154;51.970;5.650;2022-08-18T17:30:06;101300;;;25.80499;63.7
70943;BME280;59154;51.970;5.650;2022-08-18T17:35:07;101300;;;25.71344;64.3
70943;BME280;59154;51.970;5.650;2022-08-18T17:40:07;101300;;;26.28312;63.8
70943;BME280;59154;51.970;5.650;2022-08-18T17:45:05;101300;;;26.09492;63.3
70943;BME280;59154;51.970;5.650;2022-08-18T17:50:06;101300;;;26.0288;63.9
70943;BME280;59154;51.970;5.650;2022-08-18T17:55:07;101300;;;25.83551;64.0
70943;BME280;59154;51.970;5.650;2022-08-18T18:00:07;101300;;;25.69818;64.6
70943;BME280;59154;51.970;5.650;2022-08-18T18:05:06;101300;;;25.43368;65.4
70943;BME280;59154;51.970;5.650;2022-08-18T18:10:06;101300;;;25.20479;65.7
70943;BME280;59154;51.970;5.650;2022-08-18T18:15:06;101300;;;25.19462;65.9
70943;BME280;59154;51.970;5.650;2022-08-18T18:20:15;101300;;;25.03694;66.6
70943;BME280;59154;51.970;5.650;2022-08-18T18:25:03;101300;;;24.82331;67.6
70943;BME280;59154;51.970;5.650;2022-08-18T18:30:06;101300;;;24.57408;68.2
70943;BME280;59154;51.970;5.650;2022-08-18T18:35:11;101300;;;24.54864;68.8
70943;BME280;59154;51.970;5.650;2022-08-18T18:40:06;101300;;;24.39097;69.3
70943;BME280;59154;51.970;5.650;2022-08-18T18:45:05;101300;;;24.06544;71.0
70943;BME280;59154;51.970;5.650;2022-08-18T18:50:06;101300;;;24.01966;71.5
70943;BME280;59154;51.970;5.650;2022-08-18T18:55:07;101300;;;23.88742;72.1
70943;BME280;59154;51.970;5.650;2022-08-18T19:00:08;101300;;;23.71957;72.7
70943;BME280;59154;51.970;5.650;2022-08-18T19:05:17;101300;;;23.58732;73.3
70943;BME280;59154;51.970;5.650;2022-08-18T19:10:08;101300;;;23.50085;73.7
70943;BME280;59154;51.970;5.650;2022-08-18T19:15:07;101300;;;23.39404;74.0
70943;BME280;59154;51.970;5.650;2022-08-18T19:20:07;101300;;;23.35335;74.2
70943;BME280;59154;51.970;5.650;2022-08-18T19:25:09;101300;;;23.17024;74.8
70943;BME280;59154;51.970;5.650;2022-08-18T19:30:08;101300;;;23.04817;75.3
70943;BME280;59154;51.970;5.650;2022-08-18T19:35:05;101300;;;23.00748;75.7
70943;BME280;59154;51.970;5.650;2022-08-18T19:40:11;101300;;;22.99222;75.8
70943;BME280;59154;51.970;5.650;2022-08-18T19:45:05;101300;;;22.91593;76.2
70943;BME280;59154;51.970;5.650;2022-08-18T19:50:10;101300;;;22.83963;76.4
70943;BME280;59154;51.970;5.650;2022-08-18T19:55:12;101300;;;22.72265;76.6
70943;BME280;59154;51.970;5.650;2022-08-18T20:00:13;101300;;;22.59549;77.0
70943;BME280;59154;51.970;5.650;2022-08-18T20:05:14;101300;;;22.4429;77.0
70943;BME280;59154;51.970;5.650;2022-08-18T20:10:27;101300;;;22.43273;77.2
70943;BME280;59154;51.970;5.650;2022-08-18T20:15:11;101300;;;22.38695;77.4
70943;BME280;59154;51.970;5.650;2022-08-18T20:20:12;101300;;;22.39204;77.4
70943;BME280;59154;51.970;5.650;2022-08-18T20:30:24;101300;;;22.28523;78.5
70943;BME280;59154;51.970;5.650;2022-08-18T20:35:15;101300;;;22.20385;79.0
70943;BME280;59154;51.970;5.650;2022-08-18T20:40:04;101300;;;22.09704;79.4
70943;BME280;59154;51.970;5.650;2022-08-18T20:45:08;101300;;;21.8885;80.6
70943;BME280;59154;51.970;5.650;2022-08-18T20:50:26;101300;;;21.84781;80.8
70943;BME280;59154;51.970;5.650;2022-08-18T20:55:09;101300;;;21.81729;80.9
70943;BME280;59154;51.970;5.650;2022-08-18T21:00:07;101300;;;21.7766;81.3
70943;BME280;59154;51.970;5.650;2022-08-18T21:05:03;101300;;;21.69014;81.8
70943;BME280;59154;51.970;5.650;2022-08-18T21:10:08;101300;;;21.6647;81.7
70943;BME280;59154;51.970;5.650;2022-08-18T21:15:06;101400;;;21.58332;81.9
70943;BME280;59154;51.970;5.650;2022-08-18T21:20:07;101400;;;21.50195;82.5
70943;BME280;59154;51.970;5.650;2022-08-18T21:25:02;101300;;;21.41039;82.8
70943;BME280;59154;51.970;5.650;2022-08-18T21:30:06;101400;;;21.34936;83.0
70943;BME280;59154;51.970;5.650;2022-08-18T21:35:18;101400;;;21.24255;83.4
70943;BME280;59154;51.970;5.650;2022-08-18T21:40:04;101400;;;20.89669;84.7
70943;BME280;59154;51.970;5.650;2022-08-18T21:45:03;101400;;;21.00858;84.4
70943;BME280;59154;51.970;5.650;2022-08-18T21:50:10;101400;;;21.01876;84.3
70943;BME280;59154;51.970;5.650;2022-08-18T21:55:06;101400;;;21.0035;84.3
70943;BME280;59154;51.970;5.650;2022-08-18T22:00:25;101400;;;20.82039;85.3
70943;BME280;59154;51.970;5.650;2022-08-18T22:05:02;101400;;;20.76953;85.5
70943;BME280;59154;51.970;5.650;2022-08-18T22:10:06;101400;;;20.7797;85.6
70943;BME280;59154;51.970;5.650;2022-08-18T22:15:07;101400;;;20.73393;85.8
70943;BME280;59154;51.970;5.650;2022-08-18T22:20:41;101400;;;20.68815;86.0
70943;BME280;59154;51.970;5.650;2022-08-18T22:25:04;101400;;;20.59152;86.2
70943;BME280;59154;51.970;5.650;2022-08-18T22:30:04;101400;;;20.51522;86.4
70943;BME280;59154;51.970;5.650;2022-08-18T22:35:05;101400;;;20.4135;87.0
70943;BME280;59154;51.970;5.650;2022-08-18T22:40:06;101400;;;20.36772;87.1
70943;BME280;59154;51.970;5.650;2022-08-18T22:45:06;101400;;;20.31686;87.2
70943;BME280;59154;51.970;5.650;2022-08-18T22:50:03;101400;;;20.24566;87.5
70943;BME280;59154;51.970;5.650;2022-08-18T22:55:06;101400;;;20.16428;87.7
70943;BME280;59154;51.970;5.650;2022-08-18T23:00:06;101400;;;20.04221;88.4
70943;BME280;59154;51.970;5.650;2022-08-18T23:05:03;101400;;;19.90997;89.2
70943;BME280;59154;51.970;5.650;2022-08-18T23:10:04;101400;;;19.8998;89.3
70943;BME280;59154;51.970;5.650;2022-08-18T23:15:03;101400;;;19.88454;89.2
70943;BME280;59154;51.970;5.650;2022-08-18T23:20:05;101400;;;19.85911;89.2
70943;BME280;59154;51.970;5.650;2022-08-18T23:25:03;101400;;;19.72179;89.4
70943;BME280;59154;51.970;5.650;2022-08-18T23:30:04;101400;;;19.70653;89.3
70943;BME280;59154;51.970;5.650;2022-08-18T23:35:03;101400;;;19.61498;89.3
70943;BME280;59154;51.970;5.650;2022-08-18T23:40:04;101400;;;19.57429;89.7
70943;BME280;59154;51.970;5.650;2022-08-18T23:45:02;101400;;;19.45731;90.8
70943;BME280;59154;51.970;5.650;2022-08-18T23:50:04;101400;;;19.38102;90.4
70943;BME280;59154;51.970;5.650;2022-08-18T23:55:03;101400;;;19.40136;90.3
